Time;durP1;ratioP1;P1;durP2;ratioP2;P2;SDS_P1;SDS_P2;PMS_P1;PMS_P2;Temp;Humidity;BMP_temperature;BMP_pressure;BME280_temperature;BME280_humidity;BME280_pressure;Samples;Min_cycle;Max_cycle;Signal;HPM_P1;HPM_P2
2022/07/12 00:03:17;;;;;;;0.20;0.20;;;;;;;;;;15346184;19;20010;-67
2022/07/12 00:08:18;;;;;;;0.20;0.20;;;;;;;;;;15347983;19;20158;-66
2022/07/12 00:13:19;;;;;;;0.20;0.20;;;;;;;;;;15347327;19;20003;-66
2022/07/12 00:18:21;;;;;;;0.20;0.20;;;;;;;;;;15352688;19;20010;-67
2022/07/12 00:23:22;;;;;;;0.20;0.20;;;;;;;;;;15344268;19;20017;-68
2022/07/12 00:28:24;;;;;;;0.20;0.20;;;;;;;;;;15347576;19;20119;-66
2022/07/12 00:33:26;;;;;;;0.20;0.20;;;;;;;;;;15349786;19;20003;-66
2022/07/12 00:38:27;;;;;;;0.20;0.20;;;;;;;;;;15351350;19;20121;-67
2022/07/12 00:43:29;;;;;;;0.20;0.20;;;;;;;;;;15341087;19;20127;-67
2022/07/12 00:48:33;;;;;;;0.20;0.20;;;;;;;;;;15343258;19;20007;-67
2022/07/12 00:53:36;;;;;;;;;;;;;;;;;;15349191;19;20030;-68
2022/07/12 00:58:37;;;;;;;0.20;0.20;;;;;;;;;;15351058;19;19941;-66
2022/07/12 01:03:39;;;;;;;0.20;0.20;;;;;;;;;;15343661;19;20029;-67
2022/07/12 01:08:40;;;;;;;0.30;0.30;;;;;;;;;;15342636;19;20007;-66
2022/07/12 01:13:41;;;;;;;0.20;0.20;;;;;;;;;;15351332;19;20014;-67
2022/07/12 01:18:46;;;;;;;0.20;0.20;;;;;;;;;;15349935;19;20013;-67
2022/07/12 01:23:49;;;;;;;0.20;0.20;;;;;;;;;;15350723;19;20021;-67
2022/07/12 01:28:51;;;;;;;0.20;0.20;;;;;;;;;;15350197;19;20007;-67
2022/07/12 01:33:53;;;;;;;0.20;0.20;;;;;;;;;;15342723;19;20003;-67
2022/07/12 01:38:54;;;;;;;0.20;0.20;;;;;;;;;;15341263;19;20017;-66
2022/07/12 01:43:56;;;;;;;0.20;0.20;;;;;;;;;;15349465;19;20018;-67
2022/07/12 01:48:57;;;;;;;0.20;0.20;;;;;;;;;;15342545;19;20034;-67
2022/07/12 01:53:58;;;;;;;0.13;0.13;;;;;;;;;;15340484;19;20014;-67
2022/07/12 01:58:59;;;;;;;0.20;0.20;;;;;;;;;;15343601;19;20015;-66
2022/07/12 02:04:04;;;;;;;;;;;;;;;;;;15339659;19;20177;-67
2022/07/12 02:09:05;;;;;;;0.20;0.20;;;;;;;;;;15344814;19;19919;-66
2022/07/12 02:14:07;;;;;;;0.20;0.20;;;;;;;;;;15342956;19;20064;-68
2022/07/12 02:19:10;;;;;;;0.20;0.20;;;;;;;;;;15341401;19;20108;-67
2022/07/12 02:24:11;;;;;;;0.20;0.20;;;;;;;;;;15342151;19;20017;-67
2022/07/12 02:29:13;;;;;;;0.20;0.20;;;;;;;;;;15346215;19;20014;-66
2022/07/12 02:34:15;;;;;;;0.20;0.20;;;;;;;;;;15344357;19;20009;-67
2022/07/12 02:39:16;;;;;;;0.20;0.20;;;;;;;;;;15352325;19;20018;-67
2022/07/12 02:44:17;;;;;;;0.20;0.20;;;;;;;;;;15341069;19;20014;-68
2022/07/12 02:49:18;;;;;;;0.20;0.20;;;;;;;;;;15340749;19;20010;-67
2022/07/12 02:54:20;;;;;;;0.30;0.30;;;;;;;;;;15338794;19;20015;-67
2022/07/12 02:59:21;;;;;;;0.50;0.50;;;;;;;;;;15337840;19;20014;-66
2022/07/12 03:04:22;;;;;;;0.80;0.80;;;;;;;;;;15337072;19;20033;-68
2022/07/12 03:09:23;;;;;;;1.00;1.00;;;;;;;;;;15335540;19;20131;-67
2022/07/12 03:14:24;;;;;;;0.80;0.80;;;;;;;;;;15334667;19;20015;-67
2022/07/12 03:19:26;;;;;;;1.30;1.30;;;;;;;;;;15334500;19;20029;-66
2022/07/12 03:24:27;;;;;;;0.50;0.50;;;;;;;;;;15334750;19;20026;-67
2022/07/12 03:29:29;;;;;;;1.10;1.10;;;;;;;;;;15340433;19;20013;-66
2022/07/12 03:34:30;;;;;;;0.80;0.80;;;;;;;;;;15339667;19;20014;-67
2022/07/12 03:39:31;;;;;;;0.60;0.60;;;;;;;;;;15339208;19;20079;-67
2022/07/12 03:44:33;;;;;;;0.40;0.40;;;;;;;;;;15340119;19;20025;-67
2022/07/12 03:49:34;;;;;;;0.40;0.40;;;;;;;;;;15340931;19;20176;-66
2022/07/12 03:54:35;;;;;;;0.30;0.30;;;;;;;;;;15337858;19;20015;-66
2022/07/12 03:59:37;;;;;;;0.30;0.30;;;;;;;;;;15334924;19;20238;-67
2022/07/12 04:04:39;;;;;;;0.20;0.20;;;;;;;;;;15341970;19;20058;-67
2022/07/12 04:09:40;;;;;;;0.10;0.10;;;;;;;;;;15331987;19;20018;-68
2022/07/12 04:14:42;;;;;;;0.00;0.00;;;;;;;;;;15332740;19;20010;-68
2022/07/12 04:19:43;;;;;;;0.00;0.00;;;;;;;;;;15338841;19;20038;-68
2022/07/12 04:24:44;;;;;;;0.00;0.00;;;;;;;;;;15345529;19;20215;-69
2022/07/12 04:29:45;;;;;;;0.10;0.10;;;;;;;;;;15344706;19;20007;-68
2022/07/12 04:34:47;;;;;;;0.00;0.00;;;;;;;;;;15355154;19;20042;-68
2022/07/12 04:39:48;;;;;;;0.00;0.00;;;;;;;;;;15345336;19;20015;-67
2022/07/12 04:44:49;;;;;;;0.00;0.00;;;;;;;;;;15344979;19;20011;-68
2022/07/12 04:49:50;;;;;;;0.00;0.00;;;;;;;;;;15348178;19;20042;-67
2022/07/12 04:54:51;;;;;;;0.00;0.00;;;;;;;;;;15344184;19;20006;-69
2022/07/12 04:59:53;;;;;;;0.00;0.00;;;;;;;;;;15351317;19;20011;-68
2022/07/12 05:04:54;;;;;;;0.00;0.00;;;;;;;;;;15352107;19;20227;-67
2022/07/12 05:09:55;;;;;;;0.00;0.00;;;;;;;;;;15351720;19;20139;-68
2022/07/12 05:14:56;;;;;;;0.00;0.00;;;;;;;;;;15339989;19;20242;-69
2022/07/12 05:19:58;;;;;;;0.00;0.00;;;;;;;;;;15349504;19;20010;-69
2022/07/12 05:24:59;;;;;;;0.03;0.03;;;;;;;;;;15350778;19;20049;-69
2022/07/12 05:30:02;;;;;;;0.00;0.00;;;;;;;;;;15345665;19;20130;-69
2022/07/12 05:35:03;;;;;;;0.00;0.00;;;;;;;;;;15345305;19;20022;-69
2022/07/12 05:40:05;;;;;;;0.10;0.10;;;;;;;;;;15348529;19;20130;-69
2022/07/12 05:45:08;;;;;;;0.20;0.20;;;;;;;;;;15348541;19;20014;-69
2022/07/12 05:50:09;;;;;;;0.30;0.30;;;;;;;;;;15347331;19;20015;-69
2022/07/12 05:55:10;;;;;;;0.40;0.40;;;;;;;;;;15346566;19;20010;-68
2022/07/12 06:00:12;;;;;;;0.50;0.50;;;;;;;;;;15339946;19;20092;-69
2022/07/12 06:05:13;;;;;;;0.40;0.40;;;;;;;;;;15346731;19;20043;-68
2022/07/12 06:10:14;;;;;;;0.00;0.00;;;;;;;;;;15338133;19;20015;-70
2022/07/12 06:15:16;;;;;;;0.10;0.10;;;;;;;;;;15345294;19;20007;-70
2022/07/12 06:20:17;;;;;;;0.00;0.00;;;;;;;;;;15339366;19;20023;-68
2022/07/12 06:25:18;;;;;;;0.00;0.00;;;;;;;;;;15346940;19;20135;-70
2022/07/12 06:30:21;;;;;;;0.10;0.10;;;;;;;;;;15336880;19;20007;-69
2022/07/12 06:35:22;;;;;;;0.40;0.40;;;;;;;;;;15340155;19;20023;-67
2022/07/12 06:40:24;;;;;;;0.70;0.70;;;;;;;;;;15339112;19;20014;-69
2022/07/12 06:45:25;;;;;;;0.70;0.70;;;;;;;;;;15336634;19;20009;-67
2022/07/12 06:50:26;;;;;;;0.40;0.40;;;;;;;;;;15341436;19;20010;-69
2022/07/12 06:55:28;;;;;;;0.90;0.90;;;;;;;;;;15341272;19;20167;-69
2022/07/12 07:00:29;;;;;;;1.60;1.60;;;;;;;;;;15340230;19;20055;-68
2022/07/12 07:05:30;;;;;;;2.80;2.70;;;;;;;;;;15343843;19;20282;-67
2022/07/12 07:10:31;;;;;;;4.40;4.30;;;;;;;;;;15334158;19;20007;-69
2022/07/12 07:15:33;;;;;;;6.80;6.60;;;;;;;;;;15335465;19;20018;-68
2022/07/12 07:20:34;;;;;;;10.25;9.85;;;;;;;;;;15342846;19;20022;-69
2022/07/12 07:25:36;;;;;;;13.50;12.90;;;;;;;;;;15334030;19;20007;-68
2022/07/12 07:30:52;;;;;;;15.52;14.82;;;;;;;;;;15332333;19;20225;-68
2022/07/12 07:35:54;;;;;;;19.55;18.55;;;;;;;;;;15334046;19;20035;-69
2022/07/12 07:40:55;;;;;;;21.67;20.58;;;;;;;;;;15333408;19;20018;-70
2022/07/12 07:45:56;;;;;;;23.40;22.20;;;;;;;;;;15334543;19;20011;-70
2022/07/12 07:50:57;;;;;;;24.48;23.17;;;;;;;;;;15332747;19;20045;-68
2022/07/12 07:55:59;;;;;;;27.23;25.83;;;;;;;;;;15340141;19;20223;-68
2022/07/12 08:01:00;;;;;;;32.45;30.65;;;;;;;;;;15353481;19;20011;-71
2022/07/12 08:06:02;;;;;;;34.63;32.72;;;;;;;;;;15348896;19;20034;-69
2022/07/12 08:11:03;;;;;;;36.17;34.17;;;;;;;;;;15346757;19;20230;-70
2022/07/12 08:16:05;;;;;;;41.05;38.72;;;;;;;;;;15348725;19;20022;-67
2022/07/12 08:21:06;;;;;;;43.55;41.05;;;;;;;;;;15347585;19;20018;-68
2022/07/12 08:26:07;;;;;;;47.83;45.03;;;;;;;;;;15349033;19;20192;-70
2022/07/12 08:31:09;;;;;;;50.42;47.42;;;;;;;;;;15343773;19;20011;-68
2022/07/12 08:36:10;;;;;;;54.63;51.33;;;;;;;;;;15346554;19;20006;-69
2022/07/12 08:41:13;;;;;;;60.78;56.97;;;;;;;;;;15348385;19;20146;-69
2022/07/12 08:46:15;;;;;;;64.57;60.47;;;;;;;;;;15345178;19;20211;-69
2022/07/12 08:51:21;;;;;;;68.75;64.35;;;;;;;;;;15343767;19;20011;-68
2022/07/12 08:56:32;;;;;;;71.50;66.80;;;;;;;;;;15348547;19;20247;-68
2022/07/12 09:01:50;;;;;;;75.70;70.70;;;;;;;;;;15345477;19;20055;-69
2022/07/12 09:06:52;;;;;;;77.05;71.95;;;;;;;;;;15343728;19;20014;-70
2022/07/12 09:11:53;;;;;;;77.82;72.63;;;;;;;;;;15344227;19;20046;-70
2022/07/12 09:17:13;;;;;;;74.38;69.47;;;;;;;;;;15344050;19;20007;-69
2022/07/12 09:22:18;;;;;;;61.30;57.50;;;;;;;;;;15348305;19;20031;-70
2022/07/12 09:27:25;;;;;;;22.83;21.67;;;;;;;;;;15352622;19;20041;-67
2022/07/12 09:37:47;;;;;;;15.60;14.90;;;;;;;;;;15346860;19;20030;-67
2022/07/12 09:42:49;;;;;;;5.22;5.05;;;;;;;;;;15347308;19;20021;-68
2022/07/12 09:47:52;;;;;;;3.08;2.97;;;;;;;;;;15346484;19;20066;-70
2022/07/12 09:52:56;;;;;;;0.77;0.77;;;;;;;;;;15343979;19;20066;-69
2022/07/12 09:58:01;;;;;;;0.00;0.00;;;;;;;;;;15345535;19;20022;-68
2022/07/12 10:03:03;;;;;;;0.00;0.00;;;;;;;;;;15345198;19;20021;-69
2022/07/12 10:08:05;;;;;;;0.00;0.00;;;;;;;;;;15344893;19;20062;-68
2022/07/12 10:13:06;;;;;;;0.00;0.00;;;;;;;;;;15340502;19;20030;-68
2022/07/12 10:18:15;;;;;;;0.00;0.00;;;;;;;;;;15342883;19;20014;-69
2022/07/12 10:23:19;;;;;;;0.00;0.00;;;;;;;;;;15343994;19;20050;-67
2022/07/12 10:28:21;;;;;;;0.00;0.00;;;;;;;;;;15342881;19;20006;-68
2022/07/12 10:33:23;;;;;;;0.00;0.00;;;;;;;;;;15338234;19;20003;-68
2022/07/12 10:38:25;;;;;;;0.00;0.00;;;;;;;;;;15342851;19;20014;-68
2022/07/12 10:44:11;;;;;;;0.00;0.00;;;;;;;;;;15343108;19;20037;-67
2022/07/12 10:49:26;;;;;;;0.00;0.00;;;;;;;;;;15343626;19;20010;-67
2022/07/12 10:54:27;;;;;;;0.00;0.00;;;;;;;;;;15343386;19;20037;-67
2022/07/12 10:59:30;;;;;;;0.00;0.00;;;;;;;;;;15343353;19;20014;-67
2022/07/12 11:04:33;;;;;;;0.00;0.00;;;;;;;;;;15340852;19;20121;-68
2022/07/12 11:09:34;;;;;;;0.00;0.00;;;;;;;;;;15340478;19;20215;-67
2022/07/12 11:14:35;;;;;;;0.00;0.00;;;;;;;;;;15341822;19;20026;-69
2022/07/12 11:19:37;;;;;;;0.00;0.00;;;;;;;;;;15339016;19;20049;-67
2022/07/12 11:24:39;;;;;;;0.00;0.00;;;;;;;;;;15340405;19;20014;-67
2022/07/12 11:29:56;;;;;;;0.00;0.00;;;;;;;;;;15334499;19;20057;-68
2022/07/12 11:34:58;;;;;;;0.00;0.00;;;;;;;;;;15340067;19;20014;-68
2022/07/12 11:39:59;;;;;;;0.00;0.00;;;;;;;;;;15334557;19;20013;-69
2022/07/12 11:45:00;;;;;;;0.00;0.00;;;;;;;;;;15332631;19;20005;-69
2022/07/12 11:50:01;;;;;;;0.00;0.00;;;;;;;;;;15340208;19;20135;-68
2022/07/12 11:55:07;;;;;;;0.00;0.00;;;;;;;;;;15341017;19;20014;-69
2022/07/12 12:00:20;;;;;;;0.00;0.00;;;;;;;;;;15334155;19;20021;-68
2022/07/12 12:05:22;;;;;;;0.00;0.00;;;;;;;;;;15341220;19;20222;-68
2022/07/12 12:10:24;;;;;;;0.00;0.00;;;;;;;;;;15333209;19;20014;-68
2022/07/12 12:15:26;;;;;;;0.00;0.00;;;;;;;;;;15333699;19;20090;-66
2022/07/12 12:20:31;;;;;;;;;;;;;;;;;;15336742;19;20126;-68
2022/07/12 12:25:34;;;;;;;0.00;0.00;;;;;;;;;;15332290;19;19922;-68
2022/07/12 12:30:49;;;;;;;0.00;0.00;;;;;;;;;;15331573;19;20223;-68
2022/07/12 12:35:50;;;;;;;0.00;0.00;;;;;;;;;;15333850;19;20014;-67
2022/07/12 12:40:52;;;;;;;0.00;0.00;;;;;;;;;;15331535;19;20030;-69
2022/07/12 12:45:54;;;;;;;0.00;0.00;;;;;;;;;;15338214;19;20223;-69
2022/07/12 12:51:12;;;;;;;0.00;0.00;;;;;;;;;;15349596;19;20011;-68
2022/07/12 12:56:14;;;;;;;0.00;0.00;;;;;;;;;;15348786;19;20015;-69
2022/07/12 13:01:15;;;;;;;0.00;0.00;;;;;;;;;;15345893;19;20011;-69
2022/07/12 13:06:16;;;;;;;0.00;0.00;;;;;;;;;;15348868;19;20053;-67
2022/07/12 13:11:22;;;;;;;0.00;0.00;;;;;;;;;;15347483;19;20017;-66
2022/07/12 13:16:24;;;;;;;0.00;0.00;;;;;;;;;;15347142;19;20082;-70
2022/07/12 13:21:25;;;;;;;0.00;0.00;;;;;;;;;;15344868;19;20014;-67
2022/07/12 13:26:26;;;;;;;0.00;0.00;;;;;;;;;;15345838;19;20022;-70
2022/07/12 13:31:28;;;;;;;0.00;0.00;;;;;;;;;;15340920;19;20014;-68
2022/07/12 13:36:29;;;;;;;0.00;0.00;;;;;;;;;;15347195;19;20058;-68
2022/07/12 13:41:31;;;;;;;0.00;0.00;;;;;;;;;;15347498;19;20015;-67
2022/07/12 13:46:32;;;;;;;0.00;0.00;;;;;;;;;;15348011;19;20009;-69
2022/07/12 13:51:33;;;;;;;0.00;0.00;;;;;;;;;;15348207;19;20006;-68
2022/07/12 13:56:34;;;;;;;0.00;0.00;;;;;;;;;;15346683;19;20033;-66
2022/07/12 14:01:36;;;;;;;0.00;0.00;;;;;;;;;;15338786;19;20007;-66
2022/07/12 14:06:38;;;;;;;0.00;0.00;;;;;;;;;;15344973;19;20070;-67
2022/07/12 14:11:39;;;;;;;0.00;0.00;;;;;;;;;;15350840;19;20014;-68
2022/07/12 14:16:40;;;;;;;0.00;0.00;;;;;;;;;;15348820;19;20011;-67
2022/07/12 14:21:42;;;;;;;0.00;0.00;;;;;;;;;;15339466;19;20011;-67
2022/07/12 14:26:43;;;;;;;0.00;0.00;;;;;;;;;;15344783;19;20109;-67
2022/07/12 14:31:45;;;;;;;0.00;0.00;;;;;;;;;;15337528;19;20246;-68
2022/07/12 14:36:46;;;;;;;0.00;0.00;;;;;;;;;;15344009;19;20007;-67
2022/07/12 14:41:47;;;;;;;0.00;0.00;;;;;;;;;;15341669;19;20062;-67
2022/07/12 14:46:49;;;;;;;0.00;0.00;;;;;;;;;;15344380;19;20011;-66
2022/07/12 14:51:50;;;;;;;0.00;0.00;;;;;;;;;;15345997;19;20256;-68
2022/07/12 14:56:51;;;;;;;0.00;0.00;;;;;;;;;;15338404;19;20058;-67
2022/07/12 15:01:53;;;;;;;0.00;0.00;;;;;;;;;;15340119;19;20122;-68
2022/07/12 15:06:54;;;;;;;0.00;0.00;;;;;;;;;;15340422;19;20018;-67
2022/07/12 15:11:56;;;;;;;0.00;0.00;;;;;;;;;;15342253;19;20212;-69
2022/07/12 15:16:58;;;;;;;0.00;0.00;;;;;;;;;;15339995;19;20181;-67
2022/07/12 15:21:59;;;;;;;0.00;0.00;;;;;;;;;;15338246;19;20033;-67
2022/07/12 15:27:02;;;;;;;0.00;0.00;;;;;;;;;;15338159;19;20033;-67
2022/07/12 15:32:05;;;;;;;0.00;0.00;;;;;;;;;;15334307;19;20043;-69
2022/07/12 15:37:06;;;;;;;;;;;;;;;;;;15338055;19;20014;-73
2022/07/12 15:42:07;;;;;;;0.00;0.00;;;;;;;;;;15333976;19;19923;-68
2022/07/12 15:47:13;;;;;;;0.00;0.00;;;;;;;;;;15340962;19;20120;-70
2022/07/12 15:57:34;;;;;;;0.00;0.00;;;;;;;;;;15336418;19;20138;-69
2022/07/12 16:02:36;;;;;;;0.00;0.00;;;;;;;;;;15331360;19;20151;-70
2022/07/12 16:07:44;;;;;;;0.00;0.00;;;;;;;;;;15340322;19;20032;-68
2022/07/12 16:12:45;;;;;;;0.00;0.00;;;;;;;;;;15334879;19;20003;-69
2022/07/12 16:17:46;;;;;;;0.00;0.00;;;;;;;;;;15341442;19;20112;-66
2022/07/12 16:22:48;;;;;;;0.00;0.00;;;;;;;;;;15349686;19;20022;-67
2022/07/12 16:27:49;;;;;;;0.00;0.00;;;;;;;;;;15358935;19;20074;-66
2022/07/12 16:32:51;;;;;;;0.00;0.00;;;;;;;;;;15353896;19;20219;-65
2022/07/12 16:37:52;;;;;;;0.00;0.00;;;;;;;;;;15355133;19;20053;-67
2022/07/12 16:42:54;;;;;;;0.00;0.00;;;;;;;;;;15351293;19;20237;-68
2022/07/12 16:47:57;;;;;;;0.00;0.00;;;;;;;;;;15357643;19;20017;-68
2022/07/12 16:52:58;;;;;;;0.00;0.00;;;;;;;;;;15355121;19;20010;-68
2022/07/12 16:57:59;;;;;;;0.00;0.00;;;;;;;;;;15355918;19;20233;-66
2022/07/12 17:03:01;;;;;;;0.00;0.00;;;;;;;;;;15352801;19;20215;-67
2022/07/12 17:08:02;;;;;;;0.00;0.00;;;;;;;;;;15352301;19;20112;-66
2022/07/12 17:13:03;;;;;;;0.00;0.00;;;;;;;;;;15352243;19;20010;-66
2022/07/12 17:18:05;;;;;;;0.00;0.00;;;;;;;;;;15351308;19;20049;-65
2022/07/12 17:23:06;;;;;;;0.00;0.00;;;;;;;;;;15348643;19;20136;-67
2022/07/12 17:28:08;;;;;;;0.00;0.00;;;;;;;;;;15352228;19;20014;-69
2022/07/12 17:33:10;;;;;;;0.00;0.00;;;;;;;;;;15344732;19;20127;-65
2022/07/12 17:38:11;;;;;;;0.00;0.00;;;;;;;;;;15351021;19;20010;-68
2022/07/12 17:43:13;;;;;;;0.00;0.00;;;;;;;;;;15345095;19;20010;-69
2022/07/12 17:48:14;;;;;;;0.00;0.00;;;;;;;;;;15350191;19;20058;-66
2022/07/12 17:53:15;;;;;;;0.00;0.00;;;;;;;;;;15350823;19;20283;-67
2022/07/12 18:03:39;;;;;;;0.00;0.00;;;;;;;;;;15346272;19;20231;-66
2022/07/12 18:08:43;;;;;;;;;;;;;;;;;;15349317;19;20010;-66
2022/07/12 18:19:06;;;;;;;0.00;0.00;;;;;;;;;;15342923;19;20014;-67
2022/07/12 18:24:07;;;;;;;0.00;0.00;;;;;;;;;;15342458;19;20014;-69
2022/07/12 18:29:09;;;;;;;0.00;0.00;;;;;;;;;;15342959;19;20014;-68
2022/07/12 18:34:11;;;;;;;0.00;0.00;;;;;;;;;;15339694;19;20010;-67
2022/07/12 18:39:14;;;;;;;0.00;0.00;;;;;;;;;;15343740;19;20034;-68
2022/07/12 18:44:16;;;;;;;0.10;0.10;;;;;;;;;;15339297;19;20006;-67
2022/07/12 18:49:17;;;;;;;0.00;0.00;;;;;;;;;;15347481;19;20018;-68
2022/07/12 18:54:19;;;;;;;0.00;0.00;;;;;;;;;;15341833;19;20327;-70
2022/07/12 18:59:20;;;;;;;0.00;0.00;;;;;;;;;;15344848;19;20014;-70
2022/07/12 19:04:21;;;;;;;0.00;0.00;;;;;;;;;;15338082;19;20029;-67
2022/07/12 19:09:23;;;;;;;0.10;0.10;;;;;;;;;;15340571;19;20014;-68
2022/07/12 19:14:24;;;;;;;0.10;0.10;;;;;;;;;;15343666;19;20011;-68
2022/07/12 19:19:30;;;;;;;0.10;0.10;;;;;;;;;;15337328;19;20086;-69
2022/07/12 19:24:31;;;;;;;0.00;0.00;;;;;;;;;;15341778;19;20018;-66
2022/07/12 19:29:35;;;;;;;0.10;0.10;;;;;;;;;;15344755;19;20011;-70
2022/07/12 19:34:37;;;;;;;0.10;0.10;;;;;;;;;;15337908;19;20130;-66
2022/07/12 19:39:38;;;;;;;0.10;0.10;;;;;;;;;;15342001;19;20014;-67
2022/07/12 19:44:40;;;;;;;0.03;0.03;;;;;;;;;;15337370;19;20199;-68
2022/07/12 19:49:42;;;;;;;0.10;0.10;;;;;;;;;;15339045;19;20010;-68
2022/07/12 19:54:43;;;;;;;0.10;0.10;;;;;;;;;;15342866;19;20026;-68
2022/07/12 19:59:47;;;;;;;0.10;0.10;;;;;;;;;;15356061;19;20010;-67
2022/07/12 20:04:48;;;;;;;;;;;;;;;;;;15359003;19;20015;-68
2022/07/12 20:09:50;;;;;;;0.10;0.10;;;;;;;;;;15359561;19;20035;-66
2022/07/12 20:14:51;;;;;;;0.10;0.10;;;;;;;;;;15358615;19;20014;-69
2022/07/12 20:19:53;;;;;;;0.10;0.10;;;;;;;;;;15356805;19;20033;-68
2022/07/12 20:24:54;;;;;;;0.10;0.10;;;;;;;;;;15354632;19;20014;-67
2022/07/12 20:29:56;;;;;;;0.10;0.10;;;;;;;;;;15353456;19;20006;-68
2022/07/12 20:34:57;;;;;;;0.10;0.10;;;;;;;;;;15355245;19;20041;-66
2022/07/12 20:39:58;;;;;;;0.10;0.10;;;;;;;;;;15349814;19;20015;-65
2022/07/12 20:45:00;;;;;;;0.10;0.10;;;;;;;;;;15354924;19;20019;-66
2022/07/12 20:50:01;;;;;;;0.10;0.10;;;;;;;;;;15353328;19;20011;-67
2022/07/12 20:55:03;;;;;;;0.10;0.10;;;;;;;;;;15356678;19;20025;-67
2022/07/12 21:00:08;;;;;;;0.10;0.10;;;;;;;;;;15354965;19;20028;-67
2022/07/12 21:05:10;;;;;;;0.10;0.10;;;;;;;;;;15352020;19;20010;-69
2022/07/12 21:10:11;;;;;;;0.10;0.10;;;;;;;;;;15347576;19;20011;-66
2022/07/12 21:15:13;;;;;;;0.10;0.10;;;;;;;;;;15353732;19;20087;-67
2022/07/12 21:20:14;;;;;;;0.10;0.10;;;;;;;;;;15345682;19;20022;-67
2022/07/12 21:25:15;;;;;;;0.10;0.10;;;;;;;;;;15350962;19;20021;-67
2022/07/12 21:30:17;;;;;;;0.10;0.10;;;;;;;;;;15342839;19;20018;-66
2022/07/12 21:35:19;;;;;;;0.10;0.10;;;;;;;;;;15350626;19;20022;-68
2022/07/12 21:40:20;;;;;;;0.10;0.10;;;;;;;;;;15351676;19;20026;-65
2022/07/12 21:45:22;;;;;;;0.10;0.10;;;;;;;;;;15342485;19;20010;-65
2022/07/12 21:50:24;;;;;;;0.10;0.10;;;;;;;;;;15352385;19;20007;-66
2022/07/12 21:55:25;;;;;;;0.10;0.10;;;;;;;;;;15351047;19;20007;-67
2022/07/12 22:00:26;;;;;;;0.10;0.10;;;;;;;;;;15349910;19;20039;-66
2022/07/12 22:05:27;;;;;;;0.10;0.10;;;;;;;;;;15341276;19;20009;-66
2022/07/12 22:10:28;;;;;;;0.20;0.20;;;;;;;;;;15340676;19;20123;-65
2022/07/12 22:15:30;;;;;;;0.10;0.10;;;;;;;;;;15340653;19;20118;-67
2022/07/12 22:20:31;;;;;;;0.10;0.10;;;;;;;;;;15336868;19;20014;-66
2022/07/12 22:25:32;;;;;;;0.10;0.10;;;;;;;;;;15340536;19;20223;-68
2022/07/12 22:30:34;;;;;;;0.10;0.10;;;;;;;;;;15346315;19;20268;-67
2022/07/12 22:35:35;;;;;;;0.10;0.10;;;;;;;;;;15349511;19;20222;-65
2022/07/12 22:40:38;;;;;;;0.10;0.10;;;;;;;;;;15337785;19;20002;-67
2022/07/12 22:45:39;;;;;;;0.10;0.10;;;;;;;;;;15348267;19;20137;-65
2022/07/12 22:56:00;;;;;;;0.10;0.10;;;;;;;;;;15337742;19;20007;-66
2022/07/12 23:01:02;;;;;;;0.10;0.10;;;;;;;;;;15342104;19;20017;-66
2022/07/12 23:06:03;;;;;;;0.10;0.10;;;;;;;;;;15338741;19;20011;-65
2022/07/12 23:11:04;;;;;;;0.10;0.10;;;;;;;;;;15338521;19;20015;-66
2022/07/12 23:16:06;;;;;;;0.10;0.10;;;;;;;;;;15338957;19;20132;-66
2022/07/12 23:21:07;;;;;;;0.10;0.10;;;;;;;;;;15334934;19;20104;-65
2022/07/12 23:26:09;;;;;;;0.10;0.10;;;;;;;;;;15340026;19;20014;-67
2022/07/12 23:31:10;;;;;;;0.10;0.10;;;;;;;;;;15331535;19;20021;-66
2022/07/12 23:36:11;;;;;;;0.10;0.10;;;;;;;;;;15343676;19;20010;-67
2022/07/12 23:41:13;;;;;;;0.10;0.10;;;;;;;;;;15340645;19;20202;-66
2022/07/12 23:46:14;;;;;;;0.10;0.10;;;;;;;;;;15339070;19;20041;-67
2022/07/12 23:51:15;;;;;;;0.10;0.10;;;;;;;;;;15337896;19;20014;-66
2022/07/12 23:56:17;;;;;;;0.10;0.10;;;;;;;;;;15334211;19;20135;-66
